createdAt,value
2023-02-26T00:01:51.454Z,33.80
2023-02-26T00:04:20.967Z,31.70
2023-02-26T00:06:56.750Z,29.00
2023-02-26T00:09:27.338Z,31.30
2023-02-26T00:11:56.329Z,26.40
2023-02-26T00:14:31.364Z,35.50
2023-02-26T00:17:38.553Z,30.90
2023-02-26T00:20:12.319Z,31.30
2023-02-26T00:22:42.986Z,32.10
2023-02-26T00:25:12.496Z,33.40
2023-02-26T00:27:41.754Z,29.50
2023-02-26T00:30:11.098Z,30.30
2023-02-26T00:32:42.258Z,26.90
2023-02-26T00:35:13.719Z,29.00
2023-02-26T00:38:06.234Z,32.50
2023-02-26T00:40:51.098Z,29.20
2023-02-26T00:43:23.169Z,31.20
2023-02-26T00:45:56.386Z,30.80
2023-02-26T00:48:54.749Z,36.50
2023-02-26T00:51:33.257Z,26.90
2023-02-26T00:54:11.466Z,26.80
2023-02-26T00:56:40.153Z,29.30
2023-02-26T00:59:09.145Z,29.50
2023-02-26T01:01:38.184Z,28.10
2023-02-26T01:04:09.968Z,28.80
2023-02-26T01:06:50.558Z,27.90
2023-02-26T01:09:33.613Z,27.50
2023-02-26T01:12:06.112Z,26.40
2023-02-26T01:14:34.932Z,25.60
2023-02-26T01:17:24.740Z,27.60
2023-02-26T01:20:02.529Z,29.10
2023-02-26T01:22:34.524Z,34.20
2023-02-26T01:25:05.581Z,30.80
2023-02-26T01:27:38.209Z,27.70
2023-02-26T01:30:08.028Z,26.40
2023-02-26T01:32:55.347Z,25.70
2023-02-26T01:35:31.659Z,28.90
2023-02-26T01:38:04.185Z,25.00
2023-02-26T01:40:49.223Z,29.00
2023-02-26T01:43:22.550Z,26.80
2023-02-26T01:45:52.463Z,29.20
2023-02-26T01:48:53.715Z,32.00
2023-02-26T01:52:01.629Z,27.90
2023-02-26T01:54:34.504Z,24.40
2023-02-26T01:57:08.698Z,31.50
2023-02-26T01:59:42.846Z,30.10
2023-02-26T02:02:12.699Z,27.90
2023-02-26T02:04:42.207Z,27.90
2023-02-26T02:07:11.548Z,27.10
2023-02-26T02:09:40.149Z,27.90
2023-02-26T02:12:17.901Z,26.20
2023-02-26T02:14:55.628Z,28.60
2023-02-26T02:17:38.335Z,30.20
2023-02-26T02:20:34.670Z,29.90
2023-02-26T02:23:11.138Z,32.80
2023-02-26T02:26:00.920Z,28.20
2023-02-26T02:28:42.742Z,25.10
2023-02-26T02:31:32.693Z,27.30
2023-02-26T02:34:10.638Z,27.60
2023-02-26T02:36:59.354Z,35.30
2023-02-26T02:39:48.960Z,27.30
2023-02-26T02:42:32.371Z,26.90
2023-02-26T02:45:08.724Z,24.00
2023-02-26T02:47:40.070Z,26.40
2023-02-26T02:50:32.108Z,31.60
2023-02-26T02:53:10.095Z,26.30
2023-02-26T02:55:46.568Z,29.30
2023-02-26T02:58:17.792Z,27.70
2023-02-26T03:00:49.832Z,28.40
2023-02-26T03:03:33.528Z,32.90
2023-02-26T03:06:03.376Z,27.40
2023-02-26T03:08:41.633Z,26.50
2023-02-26T03:11:10.745Z,28.10
2023-02-26T03:13:40.983Z,25.40
2023-02-26T03:16:55.635Z,29.90
2023-02-26T03:19:30.572Z,28.10
2023-02-26T03:22:00.284Z,26.80
2023-02-26T03:24:57.412Z,27.00
2023-02-26T03:27:32.054Z,23.30
2023-02-26T03:30:12.515Z,27.20
2023-02-26T03:32:59.453Z,29.60
2023-02-26T03:35:40.389Z,27.40
2023-02-26T03:38:12.925Z,24.20
2023-02-26T03:40:48.335Z,22.60
2023-02-26T03:43:28.886Z,22.10
2023-02-26T03:46:02.252Z,25.40
2023-02-26T03:48:31.276Z,33.00
2023-02-26T03:51:06.876Z,25.90
2023-02-26T03:53:50.460Z,28.20
2023-02-26T03:56:37.758Z,26.70
2023-02-26T03:59:29.507Z,25.40
2023-02-26T04:02:20.129Z,27.50
2023-02-26T04:05:02.309Z,28.20
2023-02-26T04:07:30.954Z,23.40
2023-02-26T04:09:59.478Z,25.40
2023-02-26T04:12:28.896Z,23.10
2023-02-26T04:14:57.883Z,29.90
2023-02-26T04:17:27.086Z,24.90
2023-02-26T04:19:57.604Z,27.80
2023-02-26T04:22:26.296Z,24.40
2023-02-26T04:25:00.598Z,29.70
2023-02-26T04:27:29.900Z,26.90
2023-02-26T04:29:58.690Z,25.50
2023-02-26T04:32:27.399Z,27.60
2023-02-26T04:34:56.187Z,26.00
2023-02-26T04:37:26.502Z,23.70
2023-02-26T04:39:55.478Z,21.90
2023-02-26T04:42:25.388Z,24.50
2023-02-26T04:44:54.075Z,27.00
2023-02-26T04:47:22.660Z,25.70
2023-02-26T04:49:51.343Z,27.60
2023-02-26T04:52:21.374Z,27.80
2023-02-26T04:54:50.146Z,28.00
2023-02-26T04:57:19.048Z,29.10
2023-02-26T04:59:48.143Z,25.30
2023-02-26T05:02:16.717Z,27.90
2023-02-26T05:04:46.600Z,30.70
2023-02-26T05:07:15.072Z,28.80
2023-02-26T05:09:44.050Z,25.40
2023-02-26T05:12:13.610Z,26.40
2023-02-26T05:14:42.603Z,25.90
2023-02-26T05:17:11.708Z,25.30
2023-02-26T05:19:42.592Z,23.50
2023-02-26T05:22:14.238Z,23.00
2023-02-26T05:24:44.046Z,26.10
2023-02-26T05:27:12.814Z,25.90
2023-02-26T05:29:45.999Z,23.90
2023-02-26T05:32:15.664Z,26.50
2023-02-26T05:34:45.401Z,23.00
2023-02-26T05:37:14.190Z,24.40
2023-02-26T05:39:44.415Z,26.10
2023-02-26T05:42:13.008Z,32.00
2023-02-26T05:44:41.517Z,22.90
2023-02-26T05:47:09.956Z,24.00
2023-02-26T05:49:42.227Z,24.90
2023-02-26T05:52:10.710Z,24.70
2023-02-26T05:54:39.294Z,23.90
2023-02-26T05:57:09.937Z,25.70
2023-02-26T05:59:40.652Z,28.30
2023-02-26T06:02:10.547Z,25.60
2023-02-26T06:04:39.149Z,24.10
2023-02-26T06:07:11.012Z,26.10
2023-02-26T06:09:39.590Z,30.40
2023-02-26T06:12:11.952Z,29.40
2023-02-26T06:14:40.649Z,28.30
2023-02-26T06:17:09.334Z,29.20
2023-02-26T06:19:38.537Z,28.60
2023-02-26T06:22:07.130Z,24.70
2023-02-26T06:24:35.561Z,24.00
2023-02-26T06:27:04.128Z,26.50
2023-02-26T06:29:32.848Z,26.20
2023-02-26T06:32:01.357Z,23.90
2023-02-26T06:34:30.270Z,22.30
2023-02-26T06:36:58.748Z,24.30
2023-02-26T06:39:27.531Z,19.40
2023-02-26T06:41:56.106Z,17.30
2023-02-26T06:44:25.886Z,20.30
2023-02-26T06:46:57.402Z,21.20
2023-02-26T06:49:27.935Z,18.20
2023-02-26T06:51:57.140Z,18.30
2023-02-26T06:54:25.750Z,16.90
2023-02-26T06:56:57.997Z,16.10
2023-02-26T06:59:26.624Z,16.30
2023-02-26T07:01:55.788Z,22.30
2023-02-26T07:04:24.270Z,16.80
2023-02-26T07:06:53.014Z,13.10
2023-02-26T07:09:21.700Z,16.30
2023-02-26T07:11:51.892Z,14.20
2023-02-26T07:14:20.563Z,18.80
2023-02-26T07:16:51.340Z,18.00
2023-02-26T07:19:20.412Z,19.70
2023-02-26T07:21:49.301Z,17.40
2023-02-26T07:24:18.290Z,17.60
2023-02-26T07:26:46.882Z,17.60
2023-02-26T07:29:15.558Z,18.10
2023-02-26T07:31:44.486Z,16.80
2023-02-26T07:34:13.155Z,24.50
2023-02-26T07:36:43.086Z,22.10
2023-02-26T07:39:11.712Z,18.40
2023-02-26T07:41:41.340Z,22.70
2023-02-26T07:44:13.097Z,25.60
2023-02-26T07:46:43.829Z,34.00
2023-02-26T07:49:12.732Z,36.50
2023-02-26T07:51:45.973Z,38.90
2023-02-26T07:54:14.612Z,36.60
2023-02-26T07:56:45.448Z,28.30
2023-02-26T07:59:15.552Z,29.10
2023-02-26T08:01:44.232Z,24.10
2023-02-26T08:04:13.921Z,21.30
2023-02-26T08:06:42.431Z,20.90
2023-02-26T08:09:14.822Z,20.00
2023-02-26T08:11:43.688Z,19.10
2023-02-26T08:14:12.477Z,19.90
2023-02-26T08:16:41.278Z,17.90
2023-02-26T08:19:09.994Z,17.00
2023-02-26T08:21:38.846Z,18.80
2023-02-26T08:24:07.537Z,19.10
2023-02-26T08:26:37.391Z,17.30
2023-02-26T08:29:06.032Z,19.40
2023-02-26T08:31:35.770Z,17.40
2023-02-26T08:34:04.520Z,18.30
2023-02-26T08:36:33.110Z,16.00
2023-02-26T08:39:02.712Z,18.40
2023-02-26T08:41:32.756Z,19.40
2023-02-26T08:44:02.027Z,16.00
2023-02-26T08:46:31.381Z,16.70
2023-02-26T08:49:01.251Z,13.30
2023-02-26T08:51:31.260Z,17.40
2023-02-26T08:54:00.150Z,13.90
2023-02-26T08:56:28.945Z,16.70
2023-02-26T08:58:57.522Z,21.30
2023-02-26T09:01:26.621Z,20.00
2023-02-26T09:03:55.512Z,20.30
2023-02-26T09:06:24.358Z,19.40
2023-02-26T09:08:53.703Z,18.20
2023-02-26T09:11:22.438Z,18.50
2023-02-26T09:13:51.484Z,19.50
2023-02-26T09:16:20.411Z,19.80
2023-02-26T09:18:50.901Z,18.90
2023-02-26T09:21:19.432Z,18.60
2023-02-26T09:23:49.438Z,20.40
2023-02-26T09:26:18.395Z,17.50
2023-02-26T09:28:51.377Z,14.70
2023-02-26T09:31:20.010Z,23.00
2023-02-26T09:33:48.530Z,20.80
2023-02-26T09:36:17.004Z,18.90
2023-02-26T09:38:46.446Z,17.20
2023-02-26T09:41:21.470Z,16.70
2023-02-26T09:44:24.560Z,15.70
2023-02-26T09:46:55.496Z,14.60
2023-02-26T09:49:36.111Z,14.10
2023-02-26T09:52:28.840Z,18.00
2023-02-26T09:55:21.279Z,16.60
2023-02-26T09:57:50.044Z,15.40
2023-02-26T10:00:38.045Z,16.00
2023-02-26T10:03:28.470Z,15.80
2023-02-26T10:06:16.213Z,17.30
2023-02-26T10:09:12.824Z,14.70
2023-02-26T10:11:47.508Z,13.30
2023-02-26T10:14:37.706Z,13.80
2023-02-26T10:17:21.817Z,12.90
2023-02-26T10:19:54.538Z,13.10
2023-02-26T10:22:52.333Z,14.20
2023-02-26T10:25:59.327Z,11.30
2023-02-26T10:28:33.892Z,12.10
2023-02-26T10:31:24.020Z,8.90
2023-02-26T10:34:00.130Z,9.90
2023-02-26T10:36:31.103Z,10.70
2023-02-26T10:39:04.832Z,7.50
2023-02-26T10:41:34.872Z,8.40
2023-02-26T10:44:15.315Z,7.30
2023-02-26T10:46:54.465Z,9.80
2023-02-26T10:49:54.967Z,5.80
2023-02-26T10:52:25.960Z,9.30
2023-02-26T10:55:38.210Z,10.10
2023-02-26T10:58:14.553Z,10.30
2023-02-26T11:00:46.774Z,10.50
2023-02-26T11:03:20.016Z,10.50
2023-02-26T11:05:49.233Z,11.10
2023-02-26T11:08:32.237Z,16.00
2023-02-26T11:11:03.946Z,21.60
2023-02-26T11:13:35.908Z,15.90
2023-02-26T11:16:12.613Z,16.30
2023-02-26T11:18:44.948Z,10.30
2023-02-26T11:21:28.933Z,9.60
2023-02-26T11:24:05.372Z,10.80
2023-02-26T11:26:38.109Z,7.50
2023-02-26T11:29:06.749Z,10.50
2023-02-26T11:31:35.295Z,12.60
2023-02-26T11:34:05.177Z,9.80
2023-02-26T11:36:34.378Z,10.60
2023-02-26T11:39:25.186Z,7.80
2023-02-26T11:41:57.704Z,12.30
2023-02-26T11:44:38.658Z,12.20
2023-02-26T11:47:16.060Z,11.30
2023-02-26T11:49:47.944Z,14.90
2023-02-26T11:52:28.343Z,12.00
2023-02-26T11:55:04.492Z,12.10
2023-02-26T11:57:33.615Z,13.40
2023-02-26T12:00:22.078Z,11.80
2023-02-26T12:02:51.244Z,12.00
2023-02-26T12:05:20.559Z,11.50
2023-02-26T12:07:51.884Z,10.50
2023-02-26T12:10:38.442Z,10.80
2023-02-26T12:13:28.000Z,12.40
2023-02-26T12:16:25.364Z,14.40
2023-02-26T12:19:12.491Z,14.90
2023-02-26T12:22:15.484Z,15.00
2023-02-26T12:25:04.093Z,14.50
2023-02-26T12:27:55.648Z,14.00
2023-02-26T12:30:42.971Z,16.10
2023-02-26T12:33:34.582Z,17.70
2023-02-26T12:36:06.823Z,19.20
2023-02-26T12:38:46.110Z,17.50
2023-02-26T12:41:22.837Z,18.40
2023-02-26T12:43:55.371Z,15.40
2023-02-26T12:46:27.052Z,15.90
2023-02-26T12:49:23.487Z,13.80
2023-02-26T12:52:16.750Z,14.10
2023-02-26T12:55:01.568Z,13.70
2023-02-26T12:57:39.631Z,17.10
2023-02-26T13:00:13.147Z,20.60
2023-02-26T13:03:10.980Z,21.40
2023-02-26T13:05:45.239Z,17.40
2023-02-26T13:08:28.301Z,16.30
2023-02-26T13:11:27.880Z,14.70
2023-02-26T13:14:22.228Z,14.40
2023-02-26T13:16:52.730Z,14.80
2023-02-26T13:19:21.964Z,16.40
2023-02-26T13:22:06.395Z,16.00
2023-02-26T13:24:44.019Z,17.30
2023-02-26T13:27:12.753Z,13.50
2023-02-26T13:29:47.896Z,13.80
2023-02-26T13:32:21.903Z,14.50
2023-02-26T13:34:55.161Z,13.90
2023-02-26T13:37:43.153Z,11.20
2023-02-26T13:40:14.543Z,13.30
2023-02-26T13:42:51.268Z,12.70
2023-02-26T13:46:17.638Z,12.40
2023-02-26T13:48:52.416Z,13.60
2023-02-26T13:51:20.858Z,15.00
2023-02-26T13:53:53.348Z,15.40
2023-02-26T13:56:31.419Z,16.00
2023-02-26T13:59:05.371Z,19.80
2023-02-26T14:01:37.537Z,22.00
2023-02-26T14:04:22.780Z,17.40
2023-02-26T14:06:52.873Z,15.80
2023-02-26T14:09:22.052Z,15.50
2023-02-26T14:12:18.276Z,15.10
2023-02-26T14:15:13.242Z,12.30
2023-02-26T14:17:52.581Z,11.00
2023-02-26T14:20:26.933Z,13.10
2023-02-26T14:23:08.158Z,11.50
2023-02-26T14:25:49.885Z,12.00
2023-02-26T14:28:25.474Z,12.50
2023-02-26T14:31:06.994Z,11.60
2023-02-26T14:33:40.926Z,12.50
2023-02-26T14:36:16.885Z,11.90
2023-02-26T14:38:45.749Z,12.50
2023-02-26T14:41:27.708Z,14.40
2023-02-26T14:44:06.853Z,14.60
2023-02-26T14:46:35.390Z,16.40
2023-02-26T14:49:05.585Z,23.40
2023-02-26T14:52:04.508Z,49.50
2023-02-26T14:54:54.883Z,31.00
2023-02-26T14:57:57.187Z,21.20
2023-02-26T15:00:51.331Z,21.40
2023-02-26T15:03:40.891Z,21.50
2023-02-26T15:06:34.294Z,19.50
2023-02-26T15:09:31.977Z,20.90
2023-02-26T15:12:32.947Z,15.90
2023-02-26T15:15:17.460Z,20.70
2023-02-26T15:18:23.195Z,31.80
2023-02-26T15:21:10.964Z,64.90
2023-02-26T15:23:53.778Z,32.30
2023-02-26T15:26:28.317Z,46.90
2023-02-26T15:29:07.246Z,53.20
2023-02-26T15:31:43.911Z,32.00
2023-02-26T15:34:17.256Z,26.70
2023-02-26T15:36:47.384Z,25.00
2023-02-26T15:39:19.388Z,22.30
2023-02-26T15:41:48.679Z,19.70
2023-02-26T15:44:22.854Z,22.00
2023-02-26T15:47:02.581Z,19.20
2023-02-26T15:49:36.176Z,21.80
2023-02-26T15:52:07.479Z,22.40
2023-02-26T15:54:40.211Z,31.30
2023-02-26T15:57:11.057Z,39.00
2023-02-26T15:59:45.756Z,21.30
2023-02-26T16:02:26.893Z,22.20
2023-02-26T16:04:55.403Z,20.70
2023-02-26T16:07:24.269Z,17.20
2023-02-26T16:09:54.986Z,18.00
2023-02-26T16:12:40.745Z,19.30
2023-02-26T16:15:13.717Z,22.80
2023-02-26T16:17:48.343Z,20.70
2023-02-26T16:20:27.251Z,28.30
2023-02-26T16:23:00.220Z,42.60
2023-02-26T16:25:37.487Z,27.20
2023-02-26T16:28:12.965Z,22.60
2023-02-26T16:30:44.213Z,19.00
2023-02-26T16:33:15.152Z,24.70
2023-02-26T16:35:49.080Z,20.90
2023-02-26T16:38:23.978Z,26.40
2023-02-26T16:41:01.330Z,38.80
2023-02-26T16:43:45.723Z,31.30
2023-02-26T16:46:18.524Z,29.70
2023-02-26T16:48:54.742Z,27.90
2023-02-26T16:51:25.592Z,31.10
2023-02-26T16:56:35.111Z,27.60
2023-02-26T16:59:23.189Z,25.00
2023-02-26T17:02:01.009Z,20.90
2023-02-26T17:04:32.161Z,24.50
2023-02-26T17:07:00.922Z,23.40
2023-02-26T17:09:29.613Z,22.00
2023-02-26T17:12:07.394Z,26.60
2023-02-26T17:14:40.843Z,29.70
2023-02-26T17:17:10.404Z,26.40
2023-02-26T17:19:38.958Z,29.50
2023-02-26T17:22:11.351Z,28.00
2023-02-26T17:24:41.199Z,25.90
2023-02-26T17:27:10.736Z,27.80
2023-02-26T17:29:43.697Z,27.50
2023-02-26T17:32:24.187Z,23.30
2023-02-26T17:34:55.593Z,21.30
2023-02-26T17:37:26.184Z,24.40
2023-02-26T17:39:54.609Z,27.20
2023-02-26T17:42:23.803Z,43.50
2023-02-26T17:44:53.014Z,169.60
2023-02-26T17:47:23.589Z,141.40
2023-02-26T17:49:52.840Z,203.50
2023-02-26T17:52:21.260Z,230.50
2023-02-26T17:54:49.628Z,158.30
2023-02-26T17:57:19.947Z,198.60
2023-02-26T17:59:49.570Z,178.50
2023-02-26T18:02:23.524Z,125.30
2023-02-26T18:04:52.313Z,51.00
2023-02-26T18:07:21.374Z,33.20
2023-02-26T18:09:49.837Z,27.10
2023-02-26T18:12:22.431Z,31.10
2023-02-26T18:14:51.802Z,28.20
2023-02-26T18:17:25.501Z,47.40
2023-02-26T18:19:54.730Z,53.10
2023-02-26T18:22:25.695Z,45.80
2023-02-26T18:25:14.488Z,47.90
2023-02-26T18:27:46.326Z,51.90
2023-02-26T18:30:23.135Z,35.20
2023-02-26T18:32:53.182Z,72.10
2023-02-26T18:35:26.372Z,38.60
2023-02-26T18:37:55.557Z,56.70
2023-02-26T18:40:26.056Z,44.80
2023-02-26T18:42:55.049Z,58.20
2023-02-26T18:45:23.688Z,37.60
2023-02-26T18:47:52.215Z,40.20
2023-02-26T18:50:24.608Z,35.00
2023-02-26T18:52:53.268Z,36.90
2023-02-26T18:55:22.545Z,31.70
2023-02-26T18:57:51.500Z,35.00
2023-02-26T19:00:21.603Z,180.50
2023-02-26T19:02:50.516Z,126.50
2023-02-26T19:05:23.453Z,49.10
2023-02-26T19:07:52.062Z,96.70
2023-02-26T19:10:20.787Z,101.30
2023-02-26T19:12:51.643Z,128.80
2023-02-26T19:15:20.046Z,120.00
2023-02-26T19:17:48.605Z,42.70
2023-02-26T19:20:17.280Z,31.80
2023-02-26T19:22:49.176Z,24.00
2023-02-26T19:25:24.219Z,26.60
2023-02-26T19:27:53.774Z,36.30
2023-02-26T19:30:26.260Z,35.50
2023-02-26T19:32:55.270Z,27.10
2023-02-26T19:35:27.246Z,21.80
2023-02-26T19:37:55.895Z,32.50
2023-02-26T19:40:24.830Z,27.60
2023-02-26T19:42:53.213Z,89.50
2023-02-26T19:45:21.729Z,60.80
2023-02-26T19:47:50.186Z,102.50
2023-02-26T19:50:19.591Z,162.30
2023-02-26T19:52:48.638Z,176.60
2023-02-26T19:55:17.173Z,124.20
2023-02-26T19:57:50.290Z,147.80
2023-02-26T20:00:19.148Z,97.90
2023-02-26T20:02:47.686Z,97.80
2023-02-26T20:05:18.135Z,42.50
2023-02-26T20:07:48.344Z,96.20
2023-02-26T20:10:18.254Z,77.00
2023-02-26T20:12:48.598Z,152.60
2023-02-26T20:15:17.139Z,135.20
2023-02-26T20:17:45.643Z,131.90
2023-02-26T20:20:18.994Z,81.50
2023-02-26T20:22:49.580Z,64.00
2023-02-26T20:25:19.479Z,136.30
2023-02-26T20:27:48.813Z,184.10
2023-02-26T20:30:17.790Z,115.90
2023-02-26T20:32:46.891Z,84.70
2023-02-26T20:35:15.766Z,65.20
2023-02-26T20:37:45.150Z,33.10
2023-02-26T20:40:15.602Z,21.80
2023-02-26T20:42:44.093Z,43.60
2023-02-26T20:45:15.799Z,38.90
2023-02-26T20:47:44.309Z,44.10
2023-02-26T20:50:13.334Z,26.30
2023-02-26T20:52:42.997Z,55.80
2023-02-26T20:55:11.814Z,41.50
2023-02-26T20:57:41.643Z,42.10
2023-02-26T21:00:11.706Z,27.80
2023-02-26T21:02:41.303Z,37.70
2023-02-26T21:05:10.744Z,30.00
2023-02-26T21:07:39.728Z,36.90
2023-02-26T21:10:12.735Z,86.40
2023-02-26T21:15:10.950Z,73.00
2023-02-26T21:17:40.887Z,93.70
2023-02-26T21:20:18.333Z,305.20
2023-02-26T21:22:47.772Z,158.10
2023-02-26T21:25:16.769Z,37.80
2023-02-26T21:27:45.354Z,34.10
2023-02-26T21:30:14.010Z,29.10
2023-02-26T21:32:44.371Z,26.30
2023-02-26T21:35:16.232Z,22.20
2023-02-26T21:37:45.358Z,20.00
2023-02-26T21:40:14.980Z,19.50
2023-02-26T21:42:48.150Z,21.20
2023-02-26T21:45:16.792Z,18.70
2023-02-26T21:47:45.798Z,22.20
2023-02-26T21:50:14.363Z,16.00
2023-02-26T21:52:45.039Z,20.60
2023-02-26T21:55:13.807Z,19.70
2023-02-26T21:57:42.323Z,17.30
2023-02-26T22:00:11.813Z,16.60
2023-02-26T22:02:40.546Z,16.10
2023-02-26T22:05:10.334Z,14.20
2023-02-26T22:07:39.158Z,14.10
2023-02-26T22:10:08.293Z,13.20
2023-02-26T22:12:37.309Z,14.10
2023-02-26T22:15:06.628Z,14.70
2023-02-26T22:17:36.997Z,15.80
2023-02-26T22:20:10.048Z,19.10
2023-02-26T22:25:07.771Z,15.70
2023-02-26T22:27:37.012Z,17.40
2023-02-26T22:30:09.884Z,23.30
2023-02-26T22:32:39.498Z,30.30
2023-02-26T22:35:08.706Z,28.40
2023-02-26T22:37:37.798Z,23.90
2023-02-26T22:40:07.556Z,27.00
2023-02-26T22:42:36.407Z,57.10
2023-02-26T22:45:05.750Z,38.50
2023-02-26T22:47:35.478Z,38.30
2023-02-26T22:50:04.576Z,41.70
2023-02-26T22:52:37.632Z,33.30
2023-02-26T22:55:07.143Z,56.50
2023-02-26T22:57:36.504Z,188.80
2023-02-26T23:00:08.783Z,561.70
2023-02-26T23:02:39.203Z,225.40
2023-02-26T23:05:09.420Z,121.30
2023-02-26T23:07:41.608Z,111.70
2023-02-26T23:10:13.720Z,89.90
2023-02-26T23:12:43.121Z,48.50
2023-02-26T23:15:11.893Z,61.00
2023-02-26T23:17:43.517Z,46.30
2023-02-26T23:20:14.116Z,31.70
2023-02-26T23:22:43.987Z,29.70
2023-02-26T23:25:13.430Z,69.60
2023-02-26T23:27:41.938Z,331.90
2023-02-26T23:30:11.047Z,199.30
2023-02-26T23:32:39.585Z,118.70
2023-02-26T23:35:08.310Z,86.90
2023-02-26T23:37:37.503Z,63.70
2023-02-26T23:40:07.938Z,154.90
2023-02-26T23:42:36.905Z,99.70
2023-02-26T23:45:05.624Z,62.90
2023-02-26T23:47:35.270Z,43.90
2023-02-26T23:50:07.703Z,35.10
2023-02-26T23:52:37.641Z,129.50
2023-02-26T23:55:06.853Z,96.50
2023-02-26T23:57:36.787Z,163.00
